Time;durP1;ratioP1;P1;durP2;ratioP2;P2;SDS_P1;SDS_P2;PMS_P1;PMS_P2;Temp;Humidity;BMP_temperature;BMP_pressure;BME280_temperature;BME280_humidity;BME280_pressure;Samples;Min_cycle;Max_cycle;Signal;HPM_P1;HPM_P2
2022/01/31 00:00:45;;;;;;;9.47;4.17;;;;;;;;;;6247137;23;20176;-87
2022/01/31 00:03:13;;;;;;;7.67;4.43;;;;;;;;;;6251297;23;20180;-87
2022/01/31 00:05:40;;;;;;;9.23;4.30;;;;;;;;;;6250261;23;20173;-87
2022/01/31 00:08:07;;;;;;;8.03;4.90;;;;;;;;;;6247006;23;20231;-87
2022/01/31 00:10:35;;;;;;;7.93;4.30;;;;;;;;;;6247023;23;20231;-87
2022/01/31 00:13:05;;;;;;;11.27;5.20;;;;;;;;;;6246926;23;20184;-87
2022/01/31 00:15:38;;;;;;;8.27;4.40;;;;;;;;;;6246954;23;20212;-87
2022/01/31 00:18:07;;;;;;;9.70;4.30;;;;;;;;;;6245856;23;20207;-87
2022/01/31 00:20:34;;;;;;;7.93;4.10;;;;;;;;;;6246619;23;20169;-87
2022/01/31 00:23:01;;;;;;;7.67;4.43;;;;;;;;;;6245941;23;20173;-87
2022/01/31 00:25:29;;;;;;;8.83;4.40;;;;;;;;;;6245653;23;20230;-87
2022/01/31 00:27:56;;;;;;;7.83;4.50;;;;;;;;;;6244801;23;20192;-88
2022/01/31 00:30:23;;;;;;;7.23;4.60;;;;;;;;;;6244935;23;20184;-86
2022/01/31 00:32:51;;;;;;;9.17;4.27;;;;;;;;;;6245177;23;20176;-88
2022/01/31 00:35:19;;;;;;;9.00;4.90;;;;;;;;;;6245353;23;20231;-87
2022/01/31 00:37:47;;;;;;;8.50;4.20;;;;;;;;;;6244218;23;20192;-87
2022/01/31 00:40:14;;;;;;;8.57;4.60;;;;;;;;;;6246210;23;20192;-88
2022/01/31 00:42:42;;;;;;;7.37;4.40;;;;;;;;;;6245634;23;20176;-87
2022/01/31 00:45:13;;;;;;;9.07;4.40;;;;;;;;;;6245226;23;20243;-89
2022/01/31 00:47:44;;;;;;;9.37;4.20;;;;;;;;;;6244230;23;20661;-87
2022/01/31 00:50:13;;;;;;;11.23;5.00;;;;;;;;;;6245148;23;20176;-87
2022/01/31 00:52:42;;;;;;;9.73;4.63;;;;;;;;;;6245258;23;20188;-87
2022/01/31 00:55:11;;;;;;;8.10;4.87;;;;;;;;;;6245085;23;20242;-88
2022/01/31 00:57:40;;;;;;;8.27;4.90;;;;;;;;;;6244372;23;20196;-87
2022/01/31 01:00:08;;;;;;;9.23;5.10;;;;;;;;;;6245156;23;20169;-87
2022/01/31 01:02:36;;;;;;;9.20;4.80;;;;;;;;;;6244936;23;20219;-87
2022/01/31 01:05:06;;;;;;;10.20;5.10;;;;;;;;;;6244693;23;20236;-86
2022/01/31 01:07:33;;;;;;;9.43;4.80;;;;;;;;;;6244427;23;20209;-88
2022/01/31 01:10:02;;;;;;;6.47;4.73;;;;;;;;;;6245011;23;20203;-87
2022/01/31 01:12:29;;;;;;;7.93;4.47;;;;;;;;;;6244511;23;20219;-87
2022/01/31 01:14:57;;;;;;;12.43;5.10;;;;;;;;;;6244821;23;20177;-88
2022/01/31 01:17:25;;;;;;;8.80;4.57;;;;;;;;;;6244248;23;20173;-88
2022/01/31 01:19:53;;;;;;;11.47;5.20;;;;;;;;;;6244985;23;20176;-87
2022/01/31 01:22:21;;;;;;;9.27;4.77;;;;;;;;;;6244601;23;20165;-87
2022/01/31 01:24:49;;;;;;;7.20;4.43;;;;;;;;;;6244268;23;20247;-87
2022/01/31 01:27:19;;;;;;;13.47;5.00;;;;;;;;;;6244071;23;20168;-87
2022/01/31 01:29:47;;;;;;;10.40;4.40;;;;;;;;;;6244693;23;20171;-87
2022/01/31 01:32:15;;;;;;;8.37;4.33;;;;;;;;;;6244407;23;20228;-87
2022/01/31 01:34:43;;;;;;;8.60;4.10;;;;;;;;;;6244531;23;20183;-88
2022/01/31 01:37:10;;;;;;;9.10;4.83;;;;;;;;;;6244154;23;20180;-88
2022/01/31 01:39:38;;;;;;;8.83;3.93;;;;;;;;;;6244452;23;20195;-87
2022/01/31 01:42:05;;;;;;;6.33;3.67;;;;;;;;;;6244607;23;20191;-87
2022/01/31 01:44:50;;;;;;;8.63;4.20;;;;;;;;;;6244405;23;20181;-87
2022/01/31 01:47:20;;;;;;;10.27;3.70;;;;;;;;;;6244045;23;20164;-88
2022/01/31 01:49:47;;;;;;;7.73;4.03;;;;;;;;;;6249750;23;20189;-87
2022/01/31 01:52:15;;;;;;;6.17;4.20;;;;;;;;;;6258842;23;20188;-88
2022/01/31 01:54:44;;;;;;;7.63;4.27;;;;;;;;;;6250369;23;20188;-87
2022/01/31 01:57:11;;;;;;;6.80;3.77;;;;;;;;;;6245753;23;20180;-87
2022/01/31 01:59:40;;;;;;;8.43;4.20;;;;;;;;;;6252594;23;20180;-87
2022/01/31 02:02:08;;;;;;;8.13;4.30;;;;;;;;;;6249045;23;20172;-88
2022/01/31 02:04:37;;;;;;;6.23;4.10;;;;;;;;;;6269083;23;20188;-87
2022/01/31 02:07:04;;;;;;;9.50;3.93;;;;;;;;;;6257791;23;20625;-87
2022/01/31 02:09:32;;;;;;;8.53;4.40;;;;;;;;;;6244944;23;20192;-87
2022/01/31 02:11:59;;;;;;;6.37;3.97;;;;;;;;;;6244641;23;20199;-88
2022/01/31 02:14:28;;;;;;;8.13;3.60;;;;;;;;;;6244783;23;20172;-87
2022/01/31 02:16:56;;;;;;;6.33;4.13;;;;;;;;;;6245014;23;20176;-87
2022/01/31 02:19:23;;;;;;;5.47;3.90;;;;;;;;;;6245398;23;20271;-87
2022/01/31 02:21:52;;;;;;;8.03;3.87;;;;;;;;;;6245798;23;20277;-87
2022/01/31 02:24:20;;;;;;;8.00;3.93;;;;;;;;;;6245143;23;20176;-87
2022/01/31 02:26:48;;;;;;;10.13;4.50;;;;;;;;;;6244806;23;20176;-86
2022/01/31 02:29:15;;;;;;;10.87;4.60;;;;;;;;;;6244760;23;20203;-87
2022/01/31 02:31:46;;;;;;;6.43;3.67;;;;;;;;;;6245208;23;20192;-87
2022/01/31 02:34:14;;;;;;;7.93;4.17;;;;;;;;;;6250631;23;20176;-87
2022/01/31 02:36:41;;;;;;;12.27;5.03;;;;;;;;;;6255785;23;20241;-87
2022/01/31 02:39:10;;;;;;;9.37;4.63;;;;;;;;;;6245071;23;20189;-87
2022/01/31 02:41:41;;;;;;;12.97;4.53;;;;;;;;;;6244862;23;20172;-87
2022/01/31 02:44:14;;;;;;;7.53;4.00;;;;;;;;;;6245032;23;20169;-88
2022/01/31 02:46:47;;;;;;;6.97;4.20;;;;;;;;;;6244719;23;20243;-88
2022/01/31 02:49:16;;;;;;;8.63;4.43;;;;;;;;;;6245359;23;20220;-87
2022/01/31 02:51:49;;;;;;;8.33;4.03;;;;;;;;;;6244697;23;20197;-87
2022/01/31 02:54:17;;;;;;;9.17;4.17;;;;;;;;;;6245021;23;20231;-87
2022/01/31 02:56:45;;;;;;;11.17;5.07;;;;;;;;;;6244464;23;20176;-88
2022/01/31 02:59:12;;;;;;;8.27;4.60;;;;;;;;;;6245804;23;20242;-87
2022/01/31 03:01:39;;;;;;;7.80;4.10;;;;;;;;;;6245393;23;20176;-87
2022/01/31 03:04:07;;;;;;;9.23;4.33;;;;;;;;;;6244975;23;20197;-87
2022/01/31 03:06:36;;;;;;;5.90;3.87;;;;;;;;;;6245092;23;20179;-88
2022/01/31 03:09:04;;;;;;;6.70;3.73;;;;;;;;;;6245230;23;20222;-89
2022/01/31 03:11:33;;;;;;;6.50;4.10;;;;;;;;;;6245114;23;20231;-87
2022/01/31 03:14:00;;;;;;;10.27;4.53;;;;;;;;;;6245701;23;20223;-87
2022/01/31 03:16:27;;;;;;;8.30;4.27;;;;;;;;;;6245545;23;20173;-87
2022/01/31 03:18:54;;;;;;;7.93;3.67;;;;;;;;;;6245389;23;20260;-86
2022/01/31 03:21:22;;;;;;;7.87;4.77;;;;;;;;;;6247661;23;20179;-86
2022/01/31 03:23:50;;;;;;;8.37;3.50;;;;;;;;;;6248261;23;20219;-87
2022/01/31 03:26:18;;;;;;;5.93;3.77;;;;;;;;;;6247857;23;20173;-87
2022/01/31 03:28:49;;;;;;;8.53;3.53;;;;;;;;;;6247529;23;20203;-87
2022/01/31 03:31:18;;;;;;;7.53;3.37;;;;;;;;;;6249152;23;20161;-86
2022/01/31 03:33:46;;;;;;;6.70;3.60;;;;;;;;;;6248902;23;20177;-87
2022/01/31 03:36:13;;;;;;;9.87;3.90;;;;;;;;;;6249477;23;20176;-87
2022/01/31 03:38:41;;;;;;;5.80;3.57;;;;;;;;;;6259732;23;20197;-86
2022/01/31 03:41:08;;;;;;;5.70;3.53;;;;;;;;;;6269253;23;20160;-86
2022/01/31 03:43:36;;;;;;;7.60;3.93;;;;;;;;;;6249962;23;20177;-86
2022/01/31 03:46:05;;;;;;;5.70;3.53;;;;;;;;;;6247134;23;20169;-86
2022/01/31 03:48:32;;;;;;;7.10;3.50;;;;;;;;;;6246958;23;20193;-86
2022/01/31 03:51:01;;;;;;;6.93;2.90;;;;;;;;;;6248677;23;20173;-88
2022/01/31 03:53:28;;;;;;;6.93;3.17;;;;;;;;;;6249470;23;20192;-87
2022/01/31 03:55:56;;;;;;;8.87;3.20;;;;;;;;;;6249522;23;20172;-87
2022/01/31 03:58:23;;;;;;;5.00;3.00;;;;;;;;;;6246826;23;20192;-86
2022/01/31 04:00:50;;;;;;;4.83;3.03;;;;;;;;;;6248934;23;20168;-86
2022/01/31 04:03:19;;;;;;;6.53;3.00;;;;;;;;;;6249000;23;20192;-87
2022/01/31 04:05:46;;;;;;;7.10;3.40;;;;;;;;;;6248188;23;20191;-86
2022/01/31 04:08:14;;;;;;;6.40;3.43;;;;;;;;;;6247989;23;20195;-86
2022/01/31 04:10:41;;;;;;;5.07;3.47;;;;;;;;;;6248911;23;20168;-86
2022/01/31 04:13:08;;;;;;;8.70;3.70;;;;;;;;;;6248459;23;20192;-87
2022/01/31 04:15:36;;;;;;;8.63;3.57;;;;;;;;;;6248208;23;20242;-86
2022/01/31 04:27:27;;;;;;;6.07;3.40;;;;;;;;;;6158511;23;20289;-88
2022/01/31 04:30:25;;;;;;;9.40;3.90;;;;;;;;;;6178842;23;20198;-89
2022/01/31 04:36:15;;;;;;;6.77;3.40;;;;;;;;;;6169639;23;20180;-90
2022/01/31 04:39:05;;;;;;;;;;;;;;;;;;;;;
2022/01/31 04:41:51;;;;;;;6.13;3.27;;;;;;;;;;6214015;23;20169;-91
2022/01/31 04:44:22;;;;;;;6.47;3.13;;;;;;;;;;6215250;23;20170;-90
2022/01/31 04:50:53;;;;;;;7.77;3.30;;;;;;;;;;6036128;23;20197;-90
2022/01/31 08:28:31;;;;;;;3.10;2.00;;;;;;;;;;6044611;23;20175;-85
2022/01/31 08:34:21;;;;;;;3.77;1.70;;;;;;;;;;5953909;23;20205;-87
2022/01/31 08:40:38;;;;;;;2.43;1.40;;;;;;;;;;6038993;23;20208;-87
2022/01/31 08:57:07;;;;;;;1.73;1.60;;;;;;;;;;6225013;23;20182;-85
2022/01/31 08:59:43;;;;;;;1.80;1.70;;;;;;;;;;6226612;23;20192;-85
2022/01/31 09:02:14;;;;;;;2.97;1.60;;;;;;;;;;6222968;23;20180;-85
2022/01/31 09:07:25;;;;;;;2.23;1.60;;;;;;;;;;6215807;23;20181;-85
2022/01/31 09:09:54;;;;;;;1.87;1.67;;;;;;;;;;6221867;23;20197;-85
2022/01/31 09:12:31;;;;;;;1.80;1.63;;;;;;;;;;6220401;23;20207;-84
2022/01/31 09:15:16;;;;;;;3.00;1.90;;;;;;;;;;6222812;23;20154;-90
2022/01/31 09:17:46;;;;;;;1.90;1.50;;;;;;;;;;6223370;23;20175;-85
2022/01/31 09:20:42;;;;;;;1.60;1.50;;;;;;;;;;6224498;23;20220;-84
2022/01/31 09:23:11;;;;;;;3.67;1.53;;;;;;;;;;6223002;23;20184;-84
2022/01/31 09:25:45;;;;;;;1.57;1.47;;;;;;;;;;6223829;23;20169;-84
2022/01/31 09:28:17;;;;;;;1.60;1.50;;;;;;;;;;6226444;23;20204;-84
2022/01/31 09:30:45;;;;;;;1.93;1.37;;;;;;;;;;6226043;23;20180;-84
2022/01/31 09:33:17;;;;;;;1.70;1.60;;;;;;;;;;6222493;23;20189;-84
2022/01/31 10:20:41;;;;;;;4.10;1.80;;;;;;;;;;6214626;22;20218;-88
2022/01/31 10:23:19;;;;;;;2.23;1.50;;;;;;;;;;6248815;23;20176;-87
2022/01/31 10:25:58;;;;;;;2.83;1.73;;;;;;;;;;6247852;23;20581;-87
2022/01/31 10:28:28;;;;;;;3.33;1.80;;;;;;;;;;6246097;23;20179;-86
2022/01/31 10:30:59;;;;;;;3.43;1.80;;;;;;;;;;6247984;23;20194;-88
2022/01/31 10:33:38;;;;;;;2.67;1.53;;;;;;;;;;6264786;22;20168;-88
2022/01/31 10:36:21;;;;;;;2.33;1.70;;;;;;;;;;6270940;23;20183;-87
2022/01/31 10:39:13;;;;;;;1.90;1.70;;;;;;;;;;6253988;23;20169;-87
2022/01/31 10:44:59;;;;;;;3.27;1.87;;;;;;;;;;6248508;23;20155;-87
2022/01/31 10:53:20;;;;;;;3.07;1.80;;;;;;;;;;6186852;23;20198;-87
2022/01/31 10:55:54;;;;;;;2.23;1.53;;;;;;;;;;6233497;23;20199;-87
2022/01/31 10:58:22;;;;;;;3.23;1.80;;;;;;;;;;6245373;23;20226;-87
2022/01/31 11:00:52;;;;;;;3.17;1.90;;;;;;;;;;6246799;23;20292;-89
2022/01/31 11:03:50;;;;;;;2.53;1.80;;;;;;;;;;6247051;23;20176;-88
2022/01/31 11:06:17;;;;;;;2.17;1.90;;;;;;;;;;6245643;23;20188;-90
2022/01/31 11:08:46;;;;;;;3.30;1.73;;;;;;;;;;6245467;23;20168;-89
2022/01/31 11:11:13;;;;;;;4.33;1.97;;;;;;;;;;6245772;23;20239;-90
2022/01/31 11:13:41;;;;;;;2.90;1.60;;;;;;;;;;6249768;23;20185;-88
2022/01/31 11:16:08;;;;;;;4.10;1.90;;;;;;;;;;6258732;23;20585;-90
2022/01/31 11:18:43;;;;;;;4.60;1.63;;;;;;;;;;6261276;23;20173;-90
2022/01/31 11:21:20;;;;;;;1.93;1.50;;;;;;;;;;6246771;23;20648;-89
2022/01/31 11:24:01;;;;;;;4.87;1.90;;;;;;;;;;6246178;23;20153;-88
2022/01/31 11:26:29;;;;;;;4.97;1.80;;;;;;;;;;6246432;23;20172;-88
2022/01/31 11:28:58;;;;;;;3.27;1.70;;;;;;;;;;6246709;23;20188;-88
2022/01/31 11:31:26;;;;;;;2.33;1.50;;;;;;;;;;6247175;23;20193;-88
2022/01/31 11:33:56;;;;;;;3.83;1.60;;;;;;;;;;6262426;23;20188;-88
2022/01/31 11:36:23;;;;;;;3.77;1.80;;;;;;;;;;6269596;23;20191;-89
2022/01/31 11:38:53;;;;;;;6.53;1.70;;;;;;;;;;6254095;23;20228;-88
2022/01/31 11:41:20;;;;;;;2.33;1.50;;;;;;;;;;6250566;23;20193;-85
2022/01/31 11:43:53;;;;;;;3.43;1.80;;;;;;;;;;6248599;23;20236;-84
2022/01/31 11:46:24;;;;;;;2.47;1.70;;;;;;;;;;6245988;23;20593;-87
2022/01/31 11:48:55;;;;;;;4.30;1.77;;;;;;;;;;6246342;23;20168;-87
2022/01/31 11:51:24;;;;;;;2.47;1.67;;;;;;;;;;6246799;23;20188;-88
2022/01/31 11:53:51;;;;;;;3.47;1.60;;;;;;;;;;6247373;23;20196;-87
2022/01/31 11:56:22;;;;;;;3.47;1.50;;;;;;;;;;6248873;23;20173;-87
2022/01/31 11:58:50;;;;;;;2.60;1.50;;;;;;;;;;6249177;23;20225;-84
2022/01/31 12:01:20;;;;;;;4.20;1.60;;;;;;;;;;6249470;23;20199;-84
2022/01/31 12:03:58;;;;;;;2.67;1.63;;;;;;;;;;6249347;23;20167;-84
2022/01/31 12:06:36;;;;;;;3.03;1.50;;;;;;;;;;6247849;23;20164;-85
2022/01/31 12:09:16;;;;;;;4.17;1.77;;;;;;;;;;6248171;23;20220;-84
2022/01/31 12:12:11;;;;;;;3.07;1.87;;;;;;;;;;6251187;23;20251;-82
2022/01/31 12:15:04;;;;;;;5.03;1.60;;;;;;;;;;6253704;23;20184;-82
2022/01/31 12:18:01;;;;;;;4.30;1.60;;;;;;;;;;6251477;23;20177;-81
2022/01/31 12:21:59;;;;;;;5.97;1.90;;;;;;;;;;6249958;23;20262;-82
2022/01/31 12:24:00;;;;;;;;;;;;;;;;;;;;;
2022/01/31 12:29:38;;;;;;;6.67;2.10;;;;;;;;;;6220064;23;20247;-81
2022/01/31 12:32:17;;;;;;;4.80;1.80;;;;;;;;;;6248266;23;20192;-83
2022/01/31 12:35:03;;;;;;;11.93;2.60;;;;;;;;;;6252418;23;20192;-84
2022/01/31 12:37:34;;;;;;;2.80;1.73;;;;;;;;;;6232916;23;20223;-83
2022/01/31 12:40:08;;;;;;;9.83;2.10;;;;;;;;;;6250389;23;20271;-84
2022/01/31 12:42:51;;;;;;;9.20;2.30;;;;;;;;;;6253055;23;20189;-85
2022/01/31 12:45:23;;;;;;;5.27;2.13;;;;;;;;;;6252683;23;20216;-84
2022/01/31 12:48:10;;;;;;;4.13;1.90;;;;;;;;;;6252315;23;20161;-86
2022/01/31 12:50:39;;;;;;;5.63;1.60;;;;;;;;;;6254596;23;20215;-86
2022/01/31 12:53:25;;;;;;;4.47;1.80;;;;;;;;;;6253527;23;20203;-84
2022/01/31 12:56:20;;;;;;;3.07;1.80;;;;;;;;;;6250516;23;20188;-86
2022/01/31 13:01:58;;;;;;;6.13;2.33;;;;;;;;;;6252354;23;20199;-87
2022/01/31 13:04:35;;;;;;;3.93;2.00;;;;;;;;;;6253035;23;20246;-86
2022/01/31 13:07:04;;;;;;;4.73;1.80;;;;;;;;;;6252306;23;20239;-88
2022/01/31 13:09:57;;;;;;;4.73;2.50;;;;;;;;;;6254061;23;20173;-89
2022/01/31 13:12:42;;;;;;;4.40;1.97;;;;;;;;;;6205291;23;20176;-87
2022/01/31 13:15:25;;;;;;;5.33;2.27;;;;;;;;;;6228573;23;20198;-88
2022/01/31 13:24:45;;;;;;;6.37;2.17;;;;;;;;;;6239214;23;20210;-87
2022/01/31 13:27:46;;;;;;;4.87;2.47;;;;;;;;;;6255352;23;20178;-87
2022/01/31 13:30:48;;;;;;;3.57;2.00;;;;;;;;;;6248870;23;20195;-87
2022/01/31 13:36:41;;;;;;;3.13;1.90;;;;;;;;;;6248882;23;20172;-87
2022/01/31 13:42:37;;;;;;;4.70;1.67;;;;;;;;;;6181906;23;20172;-88
2022/01/31 13:45:32;;;;;;;3.30;1.80;;;;;;;;;;6249454;23;20232;-87
2022/01/31 13:53:45;;;;;;;3.70;2.10;;;;;;;;;;6236053;23;20199;-87
2022/01/31 13:56:18;;;;;;;2.20;1.73;;;;;;;;;;6247867;23;20179;-87
2022/01/31 14:02:26;;;;;;;4.47;1.90;;;;;;;;;;6244415;23;20188;-88
2022/01/31 14:21:19;;;;;;;4.53;1.67;;;;;;;;;;6119694;23;20202;-87
2022/01/31 14:27:22;;;;;;;;;;;;;;;;;;;;;
2022/01/31 14:30:24;;;;;;;4.37;1.80;;;;;;;;;;6038989;23;20161;-87
2022/01/31 14:51:39;;;;;;;4.23;1.90;;;;;;;;;;6111585;23;20233;-87
2022/01/31 14:54:43;;;;;;;5.73;1.80;;;;;;;;;;6180463;23;20192;-82
2022/01/31 14:57:22;;;;;;;3.27;1.63;;;;;;;;;;6249487;23;20167;-88
2022/01/31 15:02:33;;;;;;;3.60;2.10;;;;;;;;;;6249063;23;20172;-85
2022/01/31 15:05:28;;;;;;;5.80;2.37;;;;;;;;;;6249691;23;20168;-88
2022/01/31 15:08:02;;;;;;;5.17;2.50;;;;;;;;;;6248211;23;20180;-87
2022/01/31 15:10:42;;;;;;;5.57;2.53;;;;;;;;;;6248152;23;20193;-87
2022/01/31 15:16:21;;;;;;;7.07;3.00;;;;;;;;;;6237164;23;20169;-85
2022/01/31 15:18:55;;;;;;;7.67;2.90;;;;;;;;;;6251633;23;20172;-88
2022/01/31 15:21:27;;;;;;;8.03;3.30;;;;;;;;;;6250985;23;20192;-86
2022/01/31 15:24:32;;;;;;;6.67;2.90;;;;;;;;;;6250988;23;20181;-85
2022/01/31 15:27:12;;;;;;;6.67;2.90;;;;;;;;;;6132868;23;20183;-82
2022/01/31 15:30:02;;;;;;;9.73;3.10;;;;;;;;;;6253180;23;20172;-82
2022/01/31 15:32:54;;;;;;;7.10;2.97;;;;;;;;;;6257586;23;20199;-85
2022/01/31 15:35:25;;;;;;;7.50;3.07;;;;;;;;;;6260929;23;20191;-82
2022/01/31 15:38:00;;;;;;;5.73;2.57;;;;;;;;;;6251729;23;20180;-87
2022/01/31 15:40:28;;;;;;;8.13;2.80;;;;;;;;;;6248556;23;20188;-87
2022/01/31 15:43:03;;;;;;;5.13;2.40;;;;;;;;;;6247949;23;20228;-88
2022/01/31 15:45:30;;;;;;;7.70;2.93;;;;;;;;;;6247318;23;20168;-89
2022/01/31 15:47:59;;;;;;;4.53;2.80;;;;;;;;;;6247795;23;20185;-88
2022/01/31 15:50:27;;;;;;;8.30;2.90;;;;;;;;;;6250527;23;20212;-88
2022/01/31 15:52:54;;;;;;;6.70;3.03;;;;;;;;;;6249521;23;20173;-88
2022/01/31 15:55:22;;;;;;;4.23;2.70;;;;;;;;;;6247771;23;20192;-89
2022/01/31 15:57:50;;;;;;;4.83;2.70;;;;;;;;;;6247665;23;20195;-88
2022/01/31 16:00:18;;;;;;;5.47;2.80;;;;;;;;;;6245820;23;20200;-89
2022/01/31 16:02:48;;;;;;;6.37;2.70;;;;;;;;;;6247922;23;20181;-89
2022/01/31 16:05:17;;;;;;;4.87;2.67;;;;;;;;;;6248244;23;20176;-89
2022/01/31 16:07:44;;;;;;;7.37;2.73;;;;;;;;;;6247695;23;20252;-90
2022/01/31 16:10:12;;;;;;;7.73;2.97;;;;;;;;;;6248575;23;20199;-90
2022/01/31 16:12:40;;;;;;;7.97;3.17;;;;;;;;;;6247698;23;20176;-88
2022/01/31 16:15:08;;;;;;;4.83;2.70;;;;;;;;;;6246985;23;20263;-90
2022/01/31 16:17:36;;;;;;;6.90;2.87;;;;;;;;;;6247325;23;20195;-90
2022/01/31 16:20:07;;;;;;;4.17;2.60;;;;;;;;;;6248030;23;20218;-87
2022/01/31 16:22:37;;;;;;;7.00;3.17;;;;;;;;;;6245612;22;20196;-83
2022/01/31 16:25:09;;;;;;;5.33;3.03;;;;;;;;;;6251123;23;20188;-81
2022/01/31 16:27:36;;;;;;;5.50;2.70;;;;;;;;;;6248360;23;20165;-85
2022/01/31 16:30:04;;;;;;;5.97;2.90;;;;;;;;;;6250133;23;20172;-83
2022/01/31 16:32:35;;;;;;;8.00;3.20;;;;;;;;;;6249521;23;20746;-85
2022/01/31 16:35:04;;;;;;;5.57;2.60;;;;;;;;;;6247558;23;20280;-87
2022/01/31 16:37:35;;;;;;;6.57;3.13;;;;;;;;;;6266020;22;20180;-85
2022/01/31 16:40:05;;;;;;;7.50;2.90;;;;;;;;;;6268932;23;20176;-88
2022/01/31 16:42:32;;;;;;;7.53;2.50;;;;;;;;;;6269474;23;20200;-89
2022/01/31 16:45:04;;;;;;;6.27;2.47;;;;;;;;;;6269541;23;20169;-87
2022/01/31 16:47:32;;;;;;;6.33;2.50;;;;;;;;;;6269155;23;20172;-88
2022/01/31 16:49:59;;;;;;;3.80;2.10;;;;;;;;;;6270377;22;20173;-88
2022/01/31 16:52:29;;;;;;;5.83;2.50;;;;;;;;;;6270753;22;20203;-86
2022/01/31 16:54:58;;;;;;;10.20;2.97;;;;;;;;;;6270075;22;20197;-89
2022/01/31 16:57:26;;;;;;;5.47;3.17;;;;;;;;;;6270557;22;20192;-85
2022/01/31 16:59:53;;;;;;;4.03;2.50;;;;;;;;;;6270986;22;20169;-86
2022/01/31 17:02:21;;;;;;;5.07;2.60;;;;;;;;;;6271098;22;20181;-86
2022/01/31 17:04:48;;;;;;;3.53;2.47;;;;;;;;;;6271693;22;20156;-85
2022/01/31 17:07:15;;;;;;;5.77;3.10;;;;;;;;;;6269697;22;20206;-87
2022/01/31 17:09:43;;;;;;;7.83;2.70;;;;;;;;;;6270372;23;20230;-87
2022/01/31 17:12:13;;;;;;;3.90;2.20;;;;;;;;;;6267972;23;20189;-85
2022/01/31 17:14:41;;;;;;;5.17;2.60;;;;;;;;;;6262044;23;20185;-86
2022/01/31 17:17:09;;;;;;;5.57;2.40;;;;;;;;;;6256779;23;20176;-86
2022/01/31 17:19:37;;;;;;;4.80;2.13;;;;;;;;;;6256505;23;20172;-86
2022/01/31 17:22:04;;;;;;;4.80;2.10;;;;;;;;;;6255953;23;20262;-85
2022/01/31 17:24:32;;;;;;;7.93;2.77;;;;;;;;;;6256758;23;20172;-84
2022/01/31 17:26:59;;;;;;;5.97;2.23;;;;;;;;;;6255473;23;20176;-84
2022/01/31 17:29:27;;;;;;;6.37;2.43;;;;;;;;;;6255794;23;20168;-85
2022/01/31 17:31:55;;;;;;;4.03;2.30;;;;;;;;;;6254935;23;20214;-85
2022/01/31 17:34:23;;;;;;;6.90;2.17;;;;;;;;;;6255535;23;20178;-86
2022/01/31 17:36:50;;;;;;;3.43;1.93;;;;;;;;;;6253902;23;20173;-85
2022/01/31 17:39:17;;;;;;;3.40;2.20;;;;;;;;;;6254641;23;20173;-87
2022/01/31 17:41:46;;;;;;;6.70;2.20;;;;;;;;;;6254265;23;20219;-87
2022/01/31 17:44:19;;;;;;;6.93;1.90;;;;;;;;;;6255405;23;20180;-85
2022/01/31 17:46:47;;;;;;;5.43;2.70;;;;;;;;;;6257044;23;20169;-85
2022/01/31 17:49:16;;;;;;;5.63;2.10;;;;;;;;;;6255723;23;20244;-85
2022/01/31 17:51:43;;;;;;;7.60;2.83;;;;;;;;;;6256969;23;20243;-87
2022/01/31 17:54:11;;;;;;;6.07;2.40;;;;;;;;;;6260539;23;20172;-87
2022/01/31 17:56:39;;;;;;;5.13;2.00;;;;;;;;;;6253806;23;20184;-84
2022/01/31 17:59:07;;;;;;;6.20;2.90;;;;;;;;;;6255174;23;20181;-86
2022/01/31 18:01:35;;;;;;;4.30;3.00;;;;;;;;;;6256173;23;20193;-86
2022/01/31 18:04:02;;;;;;;3.40;2.13;;;;;;;;;;6258524;23;20173;-88
2022/01/31 18:06:31;;;;;;;4.80;1.83;;;;;;;;;;6264075;23;20169;-88
2022/01/31 18:08:59;;;;;;;3.43;2.20;;;;;;;;;;6253681;23;20331;-88
2022/01/31 18:11:26;;;;;;;4.47;2.50;;;;;;;;;;6247354;23;20188;-87
2022/01/31 18:13:53;;;;;;;4.73;2.27;;;;;;;;;;6247301;23;20172;-86
2022/01/31 18:16:21;;;;;;;4.50;2.30;;;;;;;;;;6247391;23;20214;-85
2022/01/31 18:18:48;;;;;;;5.43;2.27;;;;;;;;;;6246717;23;20179;-87
2022/01/31 18:21:16;;;;;;;4.57;2.10;;;;;;;;;;6247759;23;20283;-86
2022/01/31 18:23:44;;;;;;;5.87;2.20;;;;;;;;;;6249669;23;20169;-86
2022/01/31 18:26:12;;;;;;;7.50;2.47;;;;;;;;;;6248517;23;20168;-86
2022/01/31 18:28:42;;;;;;;3.60;2.10;;;;;;;;;;6247517;23;20168;-84
2022/01/31 18:31:09;;;;;;;6.60;2.27;;;;;;;;;;6251276;23;20203;-87
2022/01/31 18:33:39;;;;;;;7.33;2.33;;;;;;;;;;6254219;23;20234;-84
2022/01/31 18:36:09;;;;;;;5.33;2.47;;;;;;;;;;6253979;23;20207;-83
2022/01/31 18:38:36;;;;;;;5.53;2.10;;;;;;;;;;6255743;23;20173;-84
2022/01/31 18:41:05;;;;;;;4.33;1.83;;;;;;;;;;6255802;23;20173;-85
2022/01/31 18:43:33;;;;;;;5.30;2.23;;;;;;;;;;6257164;23;20179;-84
2022/01/31 18:46:00;;;;;;;4.03;2.37;;;;;;;;;;6255627;23;20179;-88
2022/01/31 18:48:28;;;;;;;6.30;2.77;;;;;;;;;;6254925;23;20172;-88
2022/01/31 18:51:00;;;;;;;6.33;2.53;;;;;;;;;;6255039;23;20172;-84
2022/01/31 18:53:27;;;;;;;5.10;2.67;;;;;;;;;;6257759;23;20232;-82
2022/01/31 18:55:54;;;;;;;3.23;2.10;;;;;;;;;;6258315;23;20185;-84
2022/01/31 18:58:23;;;;;;;5.63;2.57;;;;;;;;;;6259046;23;20176;-83
2022/01/31 19:00:51;;;;;;;4.00;2.37;;;;;;;;;;6259374;23;20172;-85
2022/01/31 19:03:21;;;;;;;4.77;2.73;;;;;;;;;;6260426;23;20207;-83
2022/01/31 19:05:49;;;;;;;3.33;2.17;;;;;;;;;;6260837;23;20195;-85
2022/01/31 19:08:21;;;;;;;7.87;2.93;;;;;;;;;;6263510;23;20173;-86
2022/01/31 19:10:54;;;;;;;7.33;2.70;;;;;;;;;;6267673;23;20165;-84
2022/01/31 19:13:26;;;;;;;4.70;2.30;;;;;;;;;;6266137;23;20171;-87
2022/01/31 19:15:55;;;;;;;6.37;2.93;;;;;;;;;;6266755;23;20219;-87
2022/01/31 19:18:29;;;;;;;4.53;2.57;;;;;;;;;;6267864;23;20173;-84
2022/01/31 19:20:57;;;;;;;3.40;2.80;;;;;;;;;;6265727;23;20167;-84
2022/01/31 19:23:25;;;;;;;6.30;2.83;;;;;;;;;;6265031;23;20173;-86
2022/01/31 19:25:52;;;;;;;6.07;2.60;;;;;;;;;;6264827;23;20228;-86
2022/01/31 19:28:20;;;;;;;4.13;2.90;;;;;;;;;;6263903;23;20172;-84
2022/01/31 19:30:49;;;;;;;8.07;2.93;;;;;;;;;;6262848;23;20202;-86
2022/01/31 19:33:22;;;;;;;7.13;2.83;;;;;;;;;;6263767;23;20177;-86
2022/01/31 19:35:52;;;;;;;4.70;3.00;;;;;;;;;;6263921;23;20189;-87
2022/01/31 19:38:23;;;;;;;5.40;3.10;;;;;;;;;;6264918;23;20172;-87
2022/01/31 19:43:37;;;;;;;7.20;3.60;;;;;;;;;;6261258;23;20156;-86
2022/01/31 19:46:08;;;;;;;10.53;3.87;;;;;;;;;;6261676;23;20183;-83
2022/01/31 19:48:38;;;;;;;11.00;5.70;;;;;;;;;;6260852;23;20247;-84
2022/01/31 19:51:06;;;;;;;9.13;3.57;;;;;;;;;;6259431;23;20221;-83
2022/01/31 19:53:34;;;;;;;7.90;4.00;;;;;;;;;;6258565;23;20179;-81
2022/01/31 19:56:02;;;;;;;6.17;3.50;;;;;;;;;;6259786;23;20192;-86
2022/01/31 19:58:30;;;;;;;6.30;3.30;;;;;;;;;;6256365;23;20176;-87
2022/01/31 20:00:58;;;;;;;4.87;2.93;;;;;;;;;;6259789;23;20179;-86
2022/01/31 20:03:25;;;;;;;4.87;2.90;;;;;;;;;;6260013;23;20211;-86
2022/01/31 20:05:54;;;;;;;6.30;3.00;;;;;;;;;;6260192;23;20196;-80
2022/01/31 20:08:22;;;;;;;5.60;2.90;;;;;;;;;;6259458;23;20172;-82
2022/01/31 20:10:50;;;;;;;6.07;2.93;;;;;;;;;;6258793;23;20172;-82
2022/01/31 20:13:18;;;;;;;8.90;2.90;;;;;;;;;;6259263;23;20184;-86
2022/01/31 20:15:45;;;;;;;5.77;3.07;;;;;;;;;;6258599;23;20196;-82
2022/01/31 20:18:13;;;;;;;5.43;2.90;;;;;;;;;;6258044;23;20173;-84
2022/01/31 20:20:42;;;;;;;5.43;2.90;;;;;;;;;;6259439;23;20196;-83
2022/01/31 20:23:16;;;;;;;6.20;2.93;;;;;;;;;;6256021;23;20211;-81
2022/01/31 20:25:44;;;;;;;8.43;3.23;;;;;;;;;;6251677;23;20184;-81
2022/01/31 20:28:11;;;;;;;6.07;3.17;;;;;;;;;;6251593;23;20527;-86
2022/01/31 20:30:41;;;;;;;7.57;3.07;;;;;;;;;;6252893;23;20231;-85
2022/01/31 20:33:08;;;;;;;3.23;2.67;;;;;;;;;;6250984;23;20192;-87
2022/01/31 20:35:35;;;;;;;7.03;3.20;;;;;;;;;;6254726;23;20276;-84
2022/01/31 20:38:09;;;;;;;7.03;2.93;;;;;;;;;;6253512;23;20227;-86
2022/01/31 20:40:56;;;;;;;7.13;3.03;;;;;;;;;;6255030;23;20164;-84
2022/01/31 20:43:23;;;;;;;6.87;3.07;;;;;;;;;;6255178;23;20187;-84
2022/01/31 20:46:08;;;;;;;4.63;3.13;;;;;;;;;;6254540;23;20176;-85
2022/01/31 20:48:35;;;;;;;5.63;3.43;;;;;;;;;;6254440;23;20160;-83
2022/01/31 20:51:03;;;;;;;3.73;3.03;;;;;;;;;;6255665;23;20172;-85
2022/01/31 20:53:30;;;;;;;3.30;3.00;;;;;;;;;;6252586;23;20219;-85
2022/01/31 20:55:59;;;;;;;7.17;3.27;;;;;;;;;;6253767;23;20196;-86
2022/01/31 20:58:28;;;;;;;9.03;3.70;;;;;;;;;;6255299;23;20172;-86
2022/01/31 21:00:56;;;;;;;9.43;3.70;;;;;;;;;;6254284;23;20187;-84
2022/01/31 21:03:24;;;;;;;7.47;3.43;;;;;;;;;;6255521;23;20195;-86
2022/01/31 21:05:52;;;;;;;9.33;3.40;;;;;;;;;;6253221;23;20172;-85
2022/01/31 21:08:24;;;;;;;5.40;3.13;;;;;;;;;;6253863;23;20242;-85
2022/01/31 21:10:51;;;;;;;9.23;3.57;;;;;;;;;;6254765;23;20176;-85
2022/01/31 21:13:20;;;;;;;6.50;3.70;;;;;;;;;;6252975;23;20172;-88
2022/01/31 21:15:48;;;;;;;10.43;3.60;;;;;;;;;;6252937;23;20189;-85
2022/01/31 21:18:16;;;;;;;8.07;3.37;;;;;;;;;;6252975;23;20200;-82
2022/01/31 21:20:43;;;;;;;6.23;3.63;;;;;;;;;;6254907;23;20203;-84
2022/01/31 21:23:11;;;;;;;6.97;3.70;;;;;;;;;;6254796;23;20216;-85
2022/01/31 21:25:40;;;;;;;6.20;3.30;;;;;;;;;;6253768;23;20178;-85
2022/01/31 21:28:08;;;;;;;8.00;3.73;;;;;;;;;;6254745;23;20180;-85
2022/01/31 21:30:37;;;;;;;6.40;3.60;;;;;;;;;;6253889;23;20207;-84
2022/01/31 21:33:05;;;;;;;5.00;3.53;;;;;;;;;;6254178;23;20193;-84
2022/01/31 21:35:32;;;;;;;5.87;3.70;;;;;;;;;;6253145;23;20183;-85